createdAt,value
2024-04-06T00:02:05.638Z,100073.86
2024-04-06T00:04:37.349Z,100076.24
2024-04-06T00:07:05.642Z,100079.36
2024-04-06T00:09:33.673Z,100074.09
2024-04-06T00:12:02.244Z,100074.77
2024-04-06T00:14:32.871Z,100075.90
2024-04-06T00:17:01.058Z,100068.64
2024-04-06T00:19:29.151Z,100073.96
2024-04-06T00:21:57.828Z,100078.57
2024-04-06T00:24:25.973Z,100076.54
2024-04-06T00:26:54.157Z,100085.14
2024-04-06T00:29:22.300Z,100092.40
2024-04-06T00:31:50.353Z,100099.48
2024-04-06T00:34:18.406Z,100107.33
2024-04-06T00:36:46.445Z,100106.14
2024-04-06T00:39:14.727Z,100102.30
2024-04-06T00:41:43.015Z,100096.86
2024-04-06T00:44:11.201Z,100101.57
2024-04-06T00:46:39.437Z,100094.10
2024-04-06T00:49:09.322Z,100094.20
2024-04-06T00:51:37.375Z,100097.71
2024-04-06T00:54:05.739Z,100097.27
2024-04-06T00:56:34.262Z,100094.64
2024-04-06T00:59:03.391Z,100096.29
2024-04-06T01:01:31.933Z,100092.55
2024-04-06T01:04:00.268Z,100091.59
2024-04-06T01:06:28.800Z,100092.98
2024-04-06T01:08:57.678Z,100095.10
2024-04-06T01:11:26.035Z,100096.91
2024-04-06T01:13:54.074Z,100103.70
2024-04-06T01:16:22.173Z,100102.90
2024-04-06T01:18:50.338Z,100093.84
2024-04-06T01:21:20.791Z,100097.80
2024-04-06T01:23:54.095Z,100092.77
2024-04-06T01:26:23.311Z,100091.96
2024-04-06T01:28:51.384Z,100099.03
2024-04-06T01:31:19.433Z,100096.45
2024-04-06T01:33:51.646Z,100079.00
2024-04-06T01:36:19.835Z,100080.77
2024-04-06T01:38:47.732Z,100082.21
2024-04-06T01:41:16.129Z,100079.72
2024-04-06T01:43:44.575Z,100068.24
2024-04-06T01:46:12.716Z,100073.62
2024-04-06T01:48:41.082Z,100075.04
2024-04-06T01:51:09.481Z,100077.22
2024-04-06T01:53:37.528Z,100078.71
2024-04-06T01:56:06.094Z,100075.70
2024-04-06T01:58:34.261Z,100070.85
2024-04-06T02:01:02.554Z,100071.55
2024-04-06T02:03:31.348Z,100068.32
2024-04-06T02:05:59.879Z,100071.28
2024-04-06T02:08:28.380Z,100073.16
2024-04-06T02:10:56.552Z,100072.67
2024-04-06T02:13:24.870Z,100072.05
2024-04-06T02:15:52.975Z,100073.84
2024-04-06T02:18:21.412Z,100067.77
2024-04-06T02:20:50.045Z,100070.78
2024-04-06T02:23:18.057Z,100072.13
2024-04-06T02:25:46.253Z,100062.64
2024-04-06T02:28:14.850Z,100066.60
2024-04-06T02:30:42.867Z,100066.11
2024-04-06T02:33:10.943Z,100061.98
2024-04-06T02:35:39.291Z,100061.81
2024-04-06T02:38:07.345Z,100061.77
2024-04-06T02:40:35.354Z,100059.86
2024-04-06T02:43:03.578Z,100056.45
2024-04-06T02:45:31.850Z,100054.92
2024-04-06T02:47:59.989Z,100056.13
2024-04-06T02:50:28.197Z,100053.86
2024-04-06T02:52:56.602Z,100060.46
2024-04-06T02:55:24.890Z,100058.61
2024-04-06T02:57:53.528Z,100060.43
2024-04-06T03:00:21.695Z,100064.63
2024-04-06T03:02:49.836Z,100059.05
2024-04-06T03:05:19.708Z,100059.70
2024-04-06T03:07:48.223Z,100055.98
2024-04-06T03:10:16.497Z,100049.45
2024-04-06T03:12:44.823Z,100047.16
2024-04-06T03:15:13.013Z,100047.92
2024-04-06T03:17:41.132Z,100046.38
2024-04-06T03:20:11.382Z,100041.08
2024-04-06T03:22:39.410Z,100044.71
2024-04-06T03:25:07.812Z,100044.63
2024-04-06T03:27:36.141Z,100045.55
2024-04-06T03:30:04.755Z,100044.39
2024-04-06T03:32:32.859Z,100034.84
2024-04-06T03:35:01.135Z,100039.70
2024-04-06T03:37:29.256Z,100029.20
2024-04-06T03:39:58.167Z,100033.23
2024-04-06T03:42:26.679Z,100029.90
2024-04-06T03:44:54.862Z,100031.17
2024-04-06T03:47:23.087Z,100030.96
2024-04-06T03:49:51.175Z,100033.20
2024-04-06T03:52:19.499Z,100027.70
2024-04-06T03:54:47.634Z,100021.02
2024-04-06T03:57:16.186Z,100029.50
2024-04-06T03:59:44.639Z,100033.48
2024-04-06T04:02:13.108Z,100028.96
2024-04-06T04:04:41.275Z,100028.52
2024-04-06T04:07:09.564Z,100023.08
2024-04-06T04:09:38.965Z,100028.20
2024-04-06T04:12:07.150Z,100024.42
2024-04-06T04:14:35.285Z,100019.84
2024-04-06T04:17:03.412Z,100021.36
2024-04-06T04:19:31.486Z,100020.67
2024-04-06T04:21:59.650Z,100011.08
2024-04-06T04:24:27.843Z,100021.67
2024-04-06T04:26:56.146Z,100024.77
2024-04-06T04:29:24.309Z,100024.45
2024-04-06T04:31:52.631Z,100028.29
2024-04-06T04:34:20.786Z,100031.66
2024-04-06T04:36:49.068Z,100033.16
2024-04-06T04:39:17.589Z,100034.06
2024-04-06T04:41:45.701Z,100030.17
2024-04-06T04:44:30.177Z,100026.92
2024-04-06T04:47:02.171Z,100036.54
2024-04-06T04:49:30.536Z,100038.33
2024-04-06T04:51:58.599Z,100039.03
2024-04-06T04:54:26.910Z,100033.82
2024-04-06T04:56:55.269Z,100027.34
2024-04-06T04:59:23.617Z,100032.84
2024-04-06T05:01:51.790Z,100029.40
2024-04-06T05:04:20.071Z,100033.52
2024-04-06T05:06:48.205Z,100039.81
2024-04-06T05:09:16.837Z,100039.17
2024-04-06T05:11:45.107Z,100035.59
2024-04-06T05:14:13.283Z,100034.17
2024-04-06T05:16:41.586Z,100040.21
2024-04-06T05:19:10.743Z,100040.15
2024-04-06T05:21:38.898Z,100040.38
2024-04-06T05:24:07.306Z,100037.52
2024-04-06T05:26:35.530Z,100041.11
2024-04-06T05:29:04.142Z,100036.95
2024-04-06T05:31:32.260Z,100035.48
2024-04-06T05:34:00.561Z,100031.11
2024-04-06T05:36:28.775Z,100033.34
2024-04-06T05:38:56.993Z,100030.30
2024-04-06T05:41:25.352Z,100026.06
2024-04-06T05:43:55.106Z,100028.35
2024-04-06T05:46:23.307Z,100033.26
2024-04-06T05:48:51.526Z,100031.38
2024-04-06T05:51:19.896Z,100032.59
2024-04-06T05:53:48.135Z,100034.14
2024-04-06T05:56:16.275Z,100034.33
2024-04-06T05:58:44.420Z,100027.83
2024-04-06T06:01:12.659Z,100032.89
2024-04-06T06:03:40.884Z,100026.36
2024-04-06T06:06:09.472Z,100030.59
2024-04-06T06:08:39.156Z,100035.31
2024-04-06T06:11:07.462Z,100035.29
2024-04-06T06:13:35.710Z,100035.81
2024-04-06T06:16:04.216Z,100041.95
2024-04-06T06:18:32.574Z,100048.81
2024-04-06T06:21:06.210Z,100052.30
2024-04-06T06:23:34.447Z,100047.78
2024-04-06T06:26:02.490Z,100052.17
2024-04-06T06:28:30.788Z,100044.73
2024-04-06T06:31:01.203Z,100051.09
2024-04-06T06:33:29.535Z,100049.50
2024-04-06T06:38:28.982Z,100050.24
2024-04-06T06:40:57.624Z,100047.20
2024-04-06T06:43:26.201Z,100053.87
2024-04-06T06:45:54.253Z,100055.55
2024-04-06T06:48:22.524Z,100053.05
2024-04-06T06:50:50.615Z,100045.43
2024-04-06T06:53:18.931Z,100044.48
2024-04-06T06:55:47.123Z,100041.89
2024-04-06T06:58:15.375Z,100040.29
2024-04-06T07:00:47.711Z,100039.23
2024-04-06T07:03:15.883Z,100034.38
2024-04-06T07:05:44.258Z,100031.69
2024-04-06T07:08:12.463Z,100029.08
2024-04-06T07:10:41.472Z,100026.27
2024-04-06T07:13:10.002Z,100021.59
2024-04-06T07:15:38.477Z,100021.17
2024-04-06T07:18:06.837Z,100021.05
2024-04-06T07:20:35.076Z,100013.86
2024-04-06T07:23:03.238Z,100016.23
2024-04-06T07:25:31.415Z,100010.73
2024-04-06T07:27:59.468Z,100013.48
2024-04-06T07:30:27.544Z,100007.36
2024-04-06T07:32:57.535Z,99995.41
2024-04-06T07:35:25.935Z,99998.91
2024-04-06T07:37:54.105Z,99998.27
2024-04-06T07:40:25.428Z,99997.67
2024-04-06T07:42:53.991Z,100000.00
2024-04-06T07:45:22.389Z,99996.04
2024-04-06T07:47:50.402Z,99986.97
2024-04-06T07:50:18.449Z,99991.86
2024-04-06T07:52:46.837Z,99989.44
2024-04-06T07:55:15.173Z,99990.48
2024-04-06T07:57:47.080Z,99984.80
2024-04-06T08:00:15.939Z,99978.77
2024-04-06T08:02:44.727Z,99977.08
2024-04-06T08:05:13.600Z,99968.74
2024-04-06T08:07:41.813Z,99972.66
2024-04-06T08:10:21.684Z,99976.55
2024-04-06T08:12:56.885Z,99975.83
2024-04-06T08:15:27.502Z,99966.48
2024-04-06T08:17:57.630Z,99973.00
2024-04-06T08:20:25.897Z,99962.05
2024-04-06T08:22:54.097Z,99971.79
2024-04-06T08:25:22.403Z,99965.09
2024-04-06T08:27:50.568Z,99960.28
2024-04-06T08:30:19.071Z,99959.09
2024-04-06T08:32:58.735Z,99961.02
2024-04-06T08:35:27.661Z,99956.34
2024-04-06T08:37:55.897Z,99956.59
2024-04-06T08:40:24.640Z,99958.43
2024-04-06T08:42:57.771Z,99957.58
2024-04-06T08:45:29.938Z,99955.68
2024-04-06T08:47:59.009Z,99954.27
2024-04-06T08:50:27.244Z,99947.66
2024-04-06T08:52:55.491Z,99946.69
2024-04-06T08:55:23.808Z,99952.14
2024-04-06T08:57:52.839Z,99950.50
2024-04-06T09:00:28.559Z,99944.09
2024-04-06T09:02:56.927Z,99930.70
2024-04-06T09:05:25.324Z,99931.15
2024-04-06T09:07:53.623Z,99934.58
2024-04-06T09:10:26.459Z,99929.46
2024-04-06T09:12:54.748Z,99916.55
2024-04-06T09:15:22.793Z,99923.09
2024-04-06T09:17:51.005Z,99916.21
2024-04-06T09:20:19.258Z,99912.41
2024-04-06T09:22:47.503Z,99903.41
2024-04-06T09:25:15.653Z,99906.44
2024-04-06T09:27:45.563Z,99903.91
2024-04-06T09:30:13.860Z,99896.14
2024-04-06T09:32:43.501Z,99898.40
2024-04-06T09:35:11.959Z,99892.27
2024-04-06T09:37:42.557Z,99896.35
2024-04-06T09:40:10.878Z,99895.69
2024-04-06T09:42:39.714Z,99887.34
2024-04-06T09:45:08.615Z,99890.32
2024-04-06T09:47:39.010Z,99882.94
2024-04-06T09:50:07.810Z,99871.59
2024-04-06T09:52:36.643Z,99873.65
2024-04-06T09:55:06.361Z,99877.86
2024-04-06T09:57:34.708Z,99872.70
2024-04-06T10:00:06.059Z,99871.24
2024-04-06T10:02:35.715Z,99871.02
2024-04-06T10:05:07.803Z,99871.91
2024-04-06T10:07:37.537Z,99871.67
2024-04-06T10:10:08.085Z,99867.77
2024-04-06T10:12:49.286Z,99867.67
2024-04-06T10:15:20.237Z,99866.54
2024-04-06T10:17:50.236Z,99863.71
2024-04-06T10:20:25.347Z,99864.23
2024-04-06T10:23:00.916Z,99857.39
2024-04-06T10:25:38.655Z,99854.93
2024-04-06T10:28:09.638Z,99848.49
2024-04-06T10:30:40.681Z,99850.22
2024-04-06T10:33:09.741Z,99846.83
2024-04-06T10:35:37.883Z,99845.80
2024-04-06T10:38:07.791Z,99838.89
2024-04-06T10:40:39.835Z,99835.89
2024-04-06T10:46:41.655Z,99831.83
2024-04-06T10:49:14.497Z,99830.20
2024-04-06T10:51:42.691Z,99819.36
2024-04-06T10:54:11.334Z,99814.95
2024-04-06T10:56:39.614Z,99816.73
2024-04-06T10:59:08.032Z,99813.70
2024-04-06T11:01:36.407Z,99814.72
2024-04-06T11:04:05.221Z,99818.16
2024-04-06T11:06:36.340Z,99815.77
2024-04-06T11:09:11.453Z,99814.09
2024-04-06T11:11:39.798Z,99806.02
2024-04-06T11:14:11.935Z,99804.54
2024-04-06T11:16:43.046Z,99805.83
2024-04-06T11:19:14.479Z,99800.48
2024-04-06T11:21:42.842Z,99799.04
2024-04-06T11:24:11.063Z,99793.81
2024-04-06T11:26:39.384Z,99785.73
2024-04-06T11:29:08.384Z,99775.94
2024-04-06T11:31:36.652Z,99778.15
2024-04-06T11:34:04.912Z,99781.16
2024-04-06T11:36:35.383Z,99786.02
2024-04-06T11:39:04.141Z,99784.07
2024-04-06T11:41:32.273Z,99778.96
2024-04-06T11:44:00.902Z,99772.57
2024-04-06T11:46:29.239Z,99758.14
2024-04-06T11:48:57.416Z,99763.85
2024-04-06T11:51:25.893Z,99764.14
2024-04-06T11:53:54.095Z,99763.70
2024-04-06T11:56:22.454Z,99759.21
2024-04-06T11:58:51.586Z,99756.41
2024-04-06T12:01:19.590Z,99755.98
2024-04-06T12:03:47.724Z,99755.33
2024-04-06T12:06:19.011Z,99754.19
2024-04-06T12:08:47.477Z,99758.55
2024-04-06T12:11:15.591Z,99753.19
2024-04-06T12:13:43.933Z,99751.30
2024-04-06T12:16:12.397Z,99751.20
2024-04-06T12:18:40.619Z,99744.95
2024-04-06T12:21:09.044Z,99736.58
2024-04-06T12:23:37.497Z,99735.80
2024-04-06T12:26:05.710Z,99740.65
2024-04-06T12:28:33.989Z,99738.41
2024-04-06T12:31:02.295Z,99741.95
2024-04-06T12:33:30.547Z,99742.59
2024-04-06T12:35:59.450Z,99739.74
2024-04-06T12:38:27.898Z,99742.02
2024-04-06T12:40:56.638Z,99737.80
2024-04-06T12:43:24.842Z,99737.45
2024-04-06T12:45:52.906Z,99731.20
2024-04-06T12:48:24.355Z,99724.86
2024-04-06T12:50:52.641Z,99729.57
2024-04-06T12:53:21.090Z,99737.20
2024-04-06T12:55:50.273Z,99735.50
2024-04-06T12:58:18.737Z,99738.52
2024-04-06T13:00:47.034Z,99736.71
2024-04-06T13:03:15.270Z,99734.35
2024-04-06T13:05:43.588Z,99735.59
2024-04-06T13:08:11.641Z,99736.41
2024-04-06T13:10:39.691Z,99732.36
2024-04-06T13:13:08.160Z,99733.52
2024-04-06T13:15:36.458Z,99729.33
2024-04-06T13:18:05.260Z,99734.67
2024-04-06T13:20:34.759Z,99743.45
2024-04-06T13:23:02.704Z,99741.52
2024-04-06T13:25:33.087Z,99759.35
2024-04-06T13:28:01.431Z,99794.43
2024-04-06T13:30:30.630Z,99819.27
2024-04-06T13:32:58.720Z,99843.75
2024-04-06T13:35:26.902Z,99868.67
2024-04-06T13:37:55.095Z,99867.33
2024-04-06T13:40:23.347Z,99873.71
2024-04-06T13:42:51.581Z,99882.04
2024-04-06T13:45:19.974Z,99877.02
2024-04-06T13:47:48.679Z,99878.59
2024-04-06T13:50:17.149Z,99884.79
2024-04-06T13:52:45.617Z,99877.92
2024-04-06T13:55:13.988Z,99858.48
2024-04-06T13:57:49.346Z,99859.49
2024-04-06T14:00:17.702Z,99863.90
2024-04-06T14:02:46.028Z,99855.88
2024-04-06T14:05:14.506Z,99824.17
2024-04-06T14:07:43.683Z,99814.96
2024-04-06T14:10:12.103Z,99839.65
2024-04-06T14:12:40.277Z,99838.58
2024-04-06T14:15:13.657Z,99837.08
2024-04-06T14:17:42.298Z,99833.34
2024-04-06T14:20:11.759Z,99831.39
2024-04-06T14:22:40.548Z,99823.39
2024-04-06T14:25:08.627Z,99824.02
2024-04-06T14:27:37.069Z,99817.70
2024-04-06T14:30:29.639Z,99825.81
2024-04-06T14:32:58.720Z,99821.37
2024-04-06T14:35:27.093Z,99818.34
2024-04-06T14:37:55.250Z,99823.84
2024-04-06T14:40:25.571Z,99825.40
2024-04-06T14:42:54.643Z,99814.55
2024-04-06T14:45:23.141Z,99808.30
2024-04-06T14:47:51.409Z,99805.14
2024-04-06T14:50:19.858Z,99807.16
2024-04-06T14:52:48.929Z,99809.18
2024-04-06T14:55:19.048Z,99802.95
2024-04-06T14:57:47.628Z,99806.67
2024-04-06T15:00:17.052Z,99807.03
2024-04-06T15:02:45.446Z,99806.55
2024-04-06T15:05:13.716Z,99812.66
2024-04-06T15:07:41.969Z,99815.45
2024-04-06T15:10:10.024Z,99808.15
2024-04-06T15:12:38.688Z,99804.02
2024-04-06T15:15:07.265Z,99804.56
2024-04-06T15:17:35.373Z,99811.80
2024-04-06T15:20:11.366Z,99815.48
2024-04-06T15:22:42.654Z,99814.30
2024-04-06T15:25:10.711Z,99817.44
2024-04-06T15:27:40.688Z,99815.21
2024-04-06T15:30:09.089Z,99815.61
2024-04-06T15:32:39.522Z,99811.11
2024-04-06T15:35:09.420Z,99811.16
2024-04-06T15:37:38.257Z,99807.77
2024-04-06T15:40:07.753Z,99802.77
2024-04-06T15:42:36.141Z,99803.19
2024-04-06T15:45:04.949Z,99795.83
2024-04-06T15:47:33.135Z,99798.20
2024-04-06T15:50:01.282Z,99798.68
2024-04-06T15:52:29.857Z,99803.05
2024-04-06T15:54:59.620Z,99804.29
2024-04-06T15:57:28.182Z,99807.79
2024-04-06T15:59:56.304Z,99807.02
2024-04-06T16:02:24.604Z,99797.41
2024-04-06T16:04:52.908Z,99804.59
2024-04-06T16:07:20.794Z,99805.39
2024-04-06T16:09:49.012Z,99799.35
2024-04-06T16:12:18.024Z,99794.50
2024-04-06T16:14:46.078Z,99795.99
2024-04-06T16:17:14.334Z,99792.60
2024-04-06T16:19:42.507Z,99790.35
2024-04-06T16:22:10.753Z,99798.27
2024-04-06T16:24:39.393Z,99795.21
2024-04-06T16:27:07.668Z,99793.66
2024-04-06T16:29:35.932Z,99785.31
2024-04-06T16:32:05.398Z,99793.40
2024-04-06T16:34:36.458Z,99798.88
2024-04-06T16:37:05.510Z,99799.84
2024-04-06T16:39:34.027Z,99795.38
2024-04-06T16:42:02.397Z,99787.36
2024-04-06T16:44:30.528Z,99794.61
2024-04-06T16:46:58.791Z,99791.48
2024-04-06T16:49:26.971Z,99798.96
2024-04-06T16:51:55.650Z,99794.49
2024-04-06T16:54:23.794Z,99797.98
2024-04-06T16:56:52.063Z,99798.23
2024-04-06T16:59:20.232Z,99798.52
2024-04-06T17:01:48.253Z,99795.64
2024-04-06T17:04:16.396Z,99800.75
2024-04-06T17:06:44.622Z,99808.17
2024-04-06T17:09:12.635Z,99810.91
2024-04-06T17:11:41.126Z,99814.58
2024-04-06T17:14:09.397Z,99814.13
2024-04-06T17:16:37.549Z,99817.39
2024-04-06T17:19:05.934Z,99816.56
2024-04-06T17:21:34.174Z,99810.02
2024-04-06T17:24:02.534Z,99823.16
2024-04-06T17:26:30.769Z,99826.95
2024-04-06T17:28:58.752Z,99824.64
2024-04-06T17:31:27.178Z,99824.55
2024-04-06T17:33:55.547Z,99830.91
2024-04-06T17:36:23.714Z,99825.60
2024-04-06T17:38:52.422Z,99831.62
2024-04-06T17:41:21.942Z,99834.65
2024-04-06T17:43:50.508Z,99830.23
2024-04-06T17:46:19.008Z,99828.88
2024-04-06T17:48:47.046Z,99826.67
2024-04-06T17:51:15.281Z,99821.73
2024-04-06T17:53:43.440Z,99816.55
2024-04-06T17:56:11.663Z,99827.89
2024-04-06T17:58:39.700Z,99820.41
2024-04-06T18:01:08.091Z,99827.93
2024-04-06T18:03:36.318Z,99830.09
2024-04-06T18:06:05.762Z,99824.91
2024-04-06T18:08:34.089Z,99831.15
2024-04-06T18:11:03.167Z,99834.70
2024-04-06T18:13:31.477Z,99833.91
2024-04-06T18:15:59.868Z,99830.36
2024-04-06T18:18:28.129Z,99837.00
2024-04-06T18:20:56.207Z,99839.44
2024-04-06T18:23:25.120Z,99849.00
2024-04-06T18:25:53.235Z,99849.86
2024-04-06T18:28:21.536Z,99855.69
2024-04-06T18:30:49.725Z,99860.92
2024-04-06T18:33:18.055Z,99858.77
2024-04-06T18:35:46.096Z,99863.88
2024-04-06T18:38:15.111Z,99864.11
2024-04-06T18:40:45.351Z,99864.75
2024-04-06T18:43:13.526Z,99868.27
2024-04-06T18:45:45.463Z,99867.73
2024-04-06T18:48:14.700Z,99868.51
2024-04-06T18:50:43.046Z,99867.34
2024-04-06T18:53:12.263Z,99865.11
2024-04-06T18:55:40.715Z,99864.54
2024-04-06T18:58:08.713Z,99868.67
2024-04-06T19:00:37.070Z,99868.64
2024-04-06T19:03:05.602Z,99866.08
2024-04-06T19:05:34.004Z,99870.21
2024-04-06T19:08:02.052Z,99871.88
2024-04-06T19:10:31.618Z,99870.95
2024-04-06T19:13:00.875Z,99869.96
2024-04-06T19:15:30.045Z,99878.48
2024-04-06T19:18:00.243Z,99878.11
2024-04-06T19:20:32.667Z,99877.57
2024-04-06T19:23:00.925Z,99879.54
2024-04-06T19:25:29.052Z,99876.17
2024-04-06T19:27:57.156Z,99882.36
2024-04-06T19:30:25.258Z,99879.56
2024-04-06T19:32:54.459Z,99880.66
2024-04-06T19:35:22.810Z,99882.80
2024-04-06T19:37:51.081Z,99884.22
2024-04-06T19:40:19.746Z,99881.39
2024-04-06T19:42:47.936Z,99881.21
2024-04-06T19:45:16.421Z,99871.77
2024-04-06T19:47:44.895Z,99880.80
2024-04-06T19:50:13.121Z,99884.10
2024-04-06T19:52:41.268Z,99887.40
2024-04-06T19:55:11.812Z,99875.15
2024-04-06T19:57:39.918Z,99886.60
2024-04-06T20:00:10.014Z,99894.96
2024-04-06T20:02:41.434Z,99895.13
2024-04-06T20:05:09.592Z,99892.23
2024-04-06T20:07:37.704Z,99904.46
2024-04-06T20:10:06.702Z,99905.14
2024-04-06T20:12:34.906Z,99903.00
2024-04-06T20:15:03.073Z,99920.09
2024-04-06T20:17:31.222Z,99936.64
2024-04-06T20:19:59.258Z,99943.81
2024-04-06T20:22:46.044Z,99936.61
2024-04-06T20:25:32.647Z,99939.48
2024-04-06T20:28:00.866Z,99922.15
2024-04-06T20:30:29.047Z,99922.31
2024-04-06T20:32:57.248Z,99909.49
2024-04-06T20:35:25.473Z,99911.13
2024-04-06T20:37:53.741Z,99907.20
2024-04-06T20:40:22.032Z,99899.90
2024-04-06T20:42:50.313Z,99893.87
2024-04-06T20:45:18.343Z,99903.22
2024-04-06T20:47:46.446Z,99907.88
2024-04-06T20:50:14.734Z,99906.52
2024-04-06T20:52:42.814Z,99898.50
2024-04-06T20:55:11.643Z,99903.15
2024-04-06T20:57:40.035Z,99896.13
2024-04-06T21:00:11.680Z,99897.77
2024-04-06T21:02:40.307Z,99901.23
2024-04-06T21:05:08.363Z,99905.50
2024-04-06T21:07:38.073Z,99883.48
2024-04-06T21:10:06.710Z,99903.14
2024-04-06T21:12:34.991Z,99902.92
2024-04-06T21:15:16.667Z,99900.35
2024-04-06T21:17:44.907Z,99899.98
2024-04-06T21:20:13.030Z,99907.37
2024-04-06T21:22:41.324Z,99910.33
2024-04-06T21:25:10.996Z,99913.06
2024-04-06T21:27:44.276Z,99913.13
2024-04-06T21:30:13.928Z,99912.27
2024-04-06T21:32:43.060Z,99907.07
2024-04-06T21:35:11.424Z,99908.64
2024-04-06T21:37:39.914Z,99901.58
2024-04-06T21:55:47.457Z,99914.22
2024-04-06T21:58:17.397Z,99921.69
2024-04-06T22:00:45.924Z,99925.29
2024-04-06T22:03:14.092Z,99935.52
2024-04-06T22:05:42.258Z,99936.04
2024-04-06T22:08:10.631Z,99940.38
2024-04-06T22:10:38.983Z,99936.55
2024-04-06T22:13:07.428Z,99934.70
2024-04-06T22:15:35.488Z,99940.25
2024-04-06T22:18:04.085Z,99941.90
2024-04-06T22:20:32.176Z,99950.58
2024-04-06T22:23:00.662Z,99949.92
2024-04-06T22:25:29.440Z,99953.33
2024-04-06T22:27:57.747Z,99947.08
2024-04-06T22:30:26.092Z,99946.20
2024-04-06T22:32:54.209Z,99947.52
2024-04-06T22:35:22.589Z,99950.21
2024-04-06T22:37:51.027Z,99950.44
2024-04-06T22:40:20.835Z,99952.78
2024-04-06T22:42:49.135Z,99958.39
2024-04-06T22:45:17.462Z,99961.55
2024-04-06T22:47:45.616Z,99956.77
2024-04-06T22:50:13.804Z,99958.94
2024-04-06T22:52:42.260Z,99953.89
2024-04-06T22:55:11.477Z,99955.16
2024-04-06T22:57:39.583Z,99945.55
2024-04-06T23:00:12.722Z,99947.16
2024-04-06T23:02:41.199Z,99937.52
2024-04-06T23:05:09.425Z,99957.55
2024-04-06T23:07:37.736Z,99962.48
2024-04-06T23:10:08.785Z,99951.29
2024-04-06T23:12:37.085Z,99957.13
2024-04-06T23:15:05.720Z,99955.30
2024-04-06T23:17:33.922Z,99949.46
2024-04-06T23:20:02.175Z,99960.71
2024-04-06T23:22:30.235Z,99958.95
2024-04-06T23:24:58.394Z,99956.17
2024-04-06T23:27:26.483Z,99947.33
2024-04-06T23:29:54.716Z,99947.19
2024-04-06T23:32:22.837Z,99956.02
2024-04-06T23:34:51.119Z,99957.01
2024-04-06T23:37:19.281Z,99966.88
2024-04-06T23:39:47.647Z,99971.02
2024-04-06T23:42:17.169Z,99962.30
2024-04-06T23:44:45.283Z,99962.27
2024-04-06T23:47:13.393Z,99964.11
2024-04-06T23:49:41.512Z,99970.83
2024-04-06T23:52:09.760Z,99975.27
2024-04-06T23:54:37.803Z,99979.36
2024-04-06T23:57:07.447Z,99981.68
2024-04-06T23:59:37.220Z,99979.54
